Etusivu
METAR-TAF:

METAR-TAF

Lentoasemat :

Tšita, Venäjä

Leveyspiiri: 52-05N, Pituuspiiri: 113-29E, korkeus merenpinnasta: 685 m

Tämänhetkinen sää

Tämä raportti tehtiin 25 minuuttia sitten, kello 11.00 UTC
Tuuli 8 kn pohjoisesta
Lämpötila 8°C
Kosteus 23%
Ilmanpaine 1023 hPa
Näkyvyys 10 km tai enemmän

METAR: UIAA 071100Z 01004MPS 9999 NSC 08/M12 Q1023 R29/60D NOSIG RMK QFE708/0944

Aika: 20:25 (11:25 UTC)

Sääennuste

Tämä raportti tehtiin 3 tuntia ja 25 minuuttia sitten, kello 08.00 UTC
Ennuste voimassa 07. päivästä klo 09 UTC - 08. päivään klo 09 UTC
Tuuli 6 kn koillisesta puuskistuen 16 kn:hen
Näkyvyys 10 km tai enemmän
Ajoittain
07. päivästä klo 09 UTC - 07. päivään klo 24 UTC
Tuuli 10 kn idästä

TAF: UIAA 070800Z 0709/0809 04003G08MPS 9999 NSC TEMPO 0709/0724 10005MPS

Säähavainnot ja -ennusteet yli 4000 lentoasemalta (METAR- ja TAF-raportit).

Käytössä olevat sääasemat on merkitty karttaan keltaisilla ja punaisilla pisteillä.

Aseta hiiri pisteen päälle nähdäksesi sääaseman nimen.

Klikkaa sitten nähdäksesi säähavainnot ja -ennusteet.

Kartan vaihtaminen: klikkaa mustalla rastilla varustettuja vihreitä pisteitä, niin voit zoomata sisään; viivalla varustettua vihreää pistettä, niin voit zoomata ulos tai vihreitä nuolia, niin pääset viereisille kartoille.


METAR-TAF: